| time (UTC) | temp C | wind direction | speed KPH | gust KPH | rain 1hr cm | rain 24hr cm | rain mn cm | humidity % | barometer mb |
| 20260903042100 | 13 | 278 | 0.0 | 0.0 | 0.00 | 0.00 | 0.00 | 67 | 1021.7 |
| 20260903041125 | 13 | 278 | 0.0 | 0.0 | 0.00 | 0.00 | 0.00 | 67 | 1021.7 |
| 20260903040121 | 13 | 278 | 0.0 | 0.0 | 0.00 | 0.00 | 0.00 | 67 | 1021.7 |
| 20260903035113 | 13 | 278 | 0.0 | 0.0 | 0.00 | 0.00 | 0.00 | 67 | 1021.8 |
| 20260903034055 | 13 | 278 | 0.0 | 0.0 | 0.00 | 0.00 | 0.00 | 66 | 1021.8 |
| 20260903033118 | 13 | 278 | 0.0 | 0.0 | 0.00 | 0.00 | 0.00 | 66 | 1021.9 |
| 20260903032138 | 13 | 278 | 0.0 | 0.0 | 0.00 | 0.00 | 0.00 | 66 | 1022.1 |
| 20260903031125 | 13 | 278 | 0.0 | 0.0 | 0.00 | 0.00 | 0.00 | 66 | 1022.1 |
| 20260903024949 | 13 | 278 | 0.0 | 0.0 | 0.00 | 0.00 | 0.00 | 65 | 1022.1 |
| 20260903023935 | 13 | 278 | 0.0 | 0.0 | 0.00 | 0.00 | 0.00 | 65 | 1022.0 |
| 20260903022936 | 13 | 278 | 0.0 | 0.0 | 0.00 | 0.00 | 0.00 | 65 | 1022.1 |
| 20260903021910 | 13 | 278 | 0.0 | 0.0 | 0.00 | 0.00 | 0.00 | 64 | 1022.1 |
| 20260903020859 | 13 | 278 | 0.0 | 0.0 | 0.00 | 0.00 | 0.00 | 63 | 1022.1 |
| 20260903015914 | 13 | 278 | 0.0 | 0.0 | 0.00 | 0.00 | 0.00 | 63 | 1022.1 |
| 20260903014841 | 13 | 278 | 0.0 | 0.0 | 0.00 | 0.00 | 0.00 | 63 | 1022.0 |
| 20260903013810 | 13 | 278 | 0.0 | 0.0 | 0.00 | 0.00 | 0.00 | 63 | 1022.0 |
| 20260903011647 | 14 | 278 | 0.0 | 0.0 | 0.00 | 0.00 | 0.00 | 63 | 1022.1 |
| 20260903010651 | 14 | 278 | 0.0 | 0.0 | 0.00 | 0.00 | 0.00 | 63 | 1022.1 |
| 20260903005644 | 14 | 278 | 0.0 | 0.0 | 0.00 | 0.00 | 0.00 | 62 | 1022.0 |
| 20260903003535 | 15 | 278 | 0.0 | 0.0 | 0.00 | 0.00 | 0.00 | 62 | 1022.0 |
| 20260903002524 | 15 | 278 | 0.0 | 0.0 | 0.00 | 0.00 | 0.00 | 62 | 1021.9 |
| 20260903001532 | 15 | 278 | 0.0 | 0.0 | 0.00 | 0.00 | 0.00 | 62 | 1022.1 |
| 20260903000551 | 15 | 278 | 0.0 | 0.0 | 0.00 | 0.00 | 0.00 | 62 | 1022.0 |
| 20260902235542 | 15 | 278 | 0.0 | 0.0 | 0.00 | 0.00 | 0.00 | 61 | 1022.0 |
| 20260902234510 | 15 | 278 | 0.0 | 0.0 | 0.00 | 0.00 | 0.00 | 61 | 1022.0 |
| 20260902232328 | 16 | 278 | 0.0 | 0.0 | 0.00 | 0.00 | 0.00 | 60 | 1022.1 |
| 20260902231256 | 16 | 278 | 0.0 | 0.0 | 0.00 | 0.00 | 0.00 | 59 | 1022.1 |
| 20260902230305 | 16 | 278 | 0.0 | 0.0 | 0.00 | 0.00 | 0.00 | 58 | 1022.0 |
| 20260902225306 | 16 | 278 | 0.0 | 0.0 | 0.00 | 0.00 | 0.00 | 58 | 1022.0 |
| 20260902224233 | 16 | 278 | 0.0 | 0.0 | 0.00 | 0.00 | 0.00 | 57 | 1022.0 |
| 20260902222048 | 17 | 278 | 0.0 | 0.0 | 0.00 | 0.00 | 0.00 | 56 | 1022.0 |
| 20260902221055 | 17 | 278 | 0.0 | 0.0 | 0.00 | 0.00 | 0.00 | 55 | 1022.0 |
| 20260902220054 | 17 | 278 | 0.0 | 0.0 | 0.00 | 0.00 | 0.00 | 55 | 1022.0 |
| 20260902215046 | 17 | 278 | 0.0 | 0.0 | 0.00 | 0.00 | 0.00 | 54 | 1021.9 |
| 20260902214013 | 17 | 278 | 0.0 | 0.0 | 0.00 | 0.00 | 0.00 | 54 | 1021.8 |
| 20260902212942 | 18 | 278 | 0.0 | 0.0 | 0.00 | 0.00 | 0.00 | 53 | 1021.7 |
| 20260902212004 | 18 | 278 | 0.0 | 0.0 | 0.00 | 0.00 | 0.00 | 53 | 1021.6 |
| 20260902211016 | 18 | 278 | 0.0 | 0.0 | 0.00 | 0.00 | 0.00 | 52 | 1021.7 |
| 20260902210012 | 18 | 278 | 0.0 | 0.0 | 0.00 | 0.00 | 0.00 | 52 | 1021.7 |
| 20260902204938 | 18 | 278 | 0.0 | 0.0 | 0.00 | 0.00 | 0.00 | 52 | 1021.6 |
| 20260902203936 | 18 | 278 | 0.0 | 0.0 | 0.00 | 0.00 | 0.00 | 51 | 1021.6 |
| 20260902202902 | 19 | 279 | 0.0 | 0.0 | 0.00 | 0.00 | 0.00 | 50 | 1021.5 |
| 20260902201851 | 19 | 279 | 0.0 | 0.0 | 0.00 | 0.00 | 0.00 | 49 | 1021.5 |
| 20260902200818 | 20 | 279 | 0.0 | 0.0 | 0.00 | 0.00 | 0.00 | 48 | 1021.5 |
| 20260902195823 | 20 | 279 | 0.0 | 0.0 | 0.00 | 0.00 | 0.00 | 47 | 1021.4 |
| 20260902194846 | 20 | 279 | 0.0 | 0.0 | 0.00 | 0.00 | 0.00 | 46 | 1021.3 |
| 20260902193836 | 20 | 279 | 0.0 | 0.0 | 0.00 | 0.00 | 0.00 | 45 | 1021.2 |
| 20260902192808 | 20 | 279 | 0.0 | 0.0 | 0.00 | 0.00 | 0.00 | 45 | 1021.1 |
| 20260902191803 | 21 | 279 | 0.0 | 0.0 | 0.00 | 0.00 | 0.00 | 45 | 1021.0 |
| 20260902190739 | 21 | 279 | 0.0 | 0.0 | 0.00 | 0.00 | 0.00 | 44 | 1021.0 |
| 20260902185803 | 21 | 279 | 0.0 | 0.0 | 0.00 | 0.00 | 0.00 | 44 | 1020.9 |
| 20260902184750 | 21 | 279 | 0.0 | 0.0 | 0.00 | 0.00 | 0.00 | 43 | 1020.7 |
| 20260902183717 | 22 | 279 | 0.0 | 0.0 | 0.00 | 0.00 | 0.00 | 43 | 1020.6 |
| 20260902182731 | 22 | 279 | 0.0 | 0.0 | 0.00 | 0.00 | 0.00 | 41 | 1020.6 |
| 20260902181719 | 22 | 279 | 0.0 | 0.0 | 0.00 | 0.00 | 0.00 | 39 | 1020.5 |
| 20260902180734 | 23 | 279 | 0.0 | 0.0 | 0.00 | 0.00 | 0.00 | 37 | 1020.5 |
| 20260902175745 | 23 | 279 | 0.0 | 0.0 | 0.00 | 0.00 | 0.00 | 37 | 1020.4 |
| 20260902174802 | 23 | 287 | 0.0 | 0.0 | 0.00 | 0.00 | 0.00 | 36 | 1020.2 |
| 20260902173728 | 23 | 279 | 0.0 | 3.2 | 0.00 | 0.00 | 0.00 | 36 | 1020.2 |
| 20260902172712 | 23 | 281 | 0.0 | 4.8 | 0.00 | 0.00 | 0.00 | 35 | 1020.1 |
| 20260902171728 | 24 | 271 | 0.0 | 4.8 | 0.00 | 0.00 | 0.00 | 35 | 1020.0 |
| 20260902170721 | 24 | 277 | 0.0 | 0.0 | 0.00 | 0.00 | 0.00 | 34 | 1020.0 |
| 20260902164649 | 24 | 257 | 4.8 | 17.7 | 0.00 | 0.00 | 0.00 | 32 | 1020.0 |
| 20260902163614 | 24 | 288 | 1.6 | 11.3 | 0.00 | 0.00 | 0.00 | 34 | 1019.9 |
| 20260902162555 | 25 | 275 | 0.0 | 4.8 | 0.00 | 0.00 | 0.00 | 34 | 1019.9 |
| 20260902161615 | 25 | 286 | 0.0 | 9.7 | 0.00 | 0.00 | 0.00 | 33 | 1020.0 |
| 20260902160640 | 25 | 310 | 1.6 | 19.3 | 0.00 | 0.00 | 0.00 | 32 | 1020.0 |
| 20260902155612 | 25 | 275 | 3.2 | 19.3 | 0.00 | 0.00 | 0.00 | 31 | 1020.0 |
| 20260902154606 | 26 | 252 | 3.2 | 16.1 | 0.00 | 0.00 | 0.00 | 31 | 1020.0 |
| 20260902152414 | 26 | 281 | 3.2 | 16.1 | 0.00 | 0.00 | 0.00 | 30 | 1020.1 |
| 20260902151358 | 26 | 299 | 3.2 | 16.1 | 0.00 | 0.00 | 0.00 | 30 | 1020.2 |
| 20260902145231 | 26 | 315 | 1.6 | 16.1 | 0.00 | 0.00 | 0.00 | 31 | 1020.2 |
| 20260902144212 | 25 | 308 | 3.2 | 16.1 | 0.00 | 0.00 | 0.00 | 32 | 1020.2 |
| 20260902143157 | 26 | 249 | 1.6 | 14.5 | 0.00 | 0.00 | 0.00 | 32 | 1020.3 |
| 20260902142152 | 25 | 288 | 3.2 | 20.9 | 0.00 | 0.00 | 0.00 | 31 | 1020.3 |
| 20260902141207 | 26 | 290 | 4.8 | 20.9 | 0.00 | 0.00 | 0.00 | 31 | 1020.2 |
| 20260902140201 | 26 | 254 | 3.2 | 19.3 | 0.00 | 0.00 | 0.00 | 30 | 1020.2 |
| 20260902135147 | 26 | 262 | 3.2 | 19.3 | 0.00 | 0.00 | 0.00 | 30 | 1020.2 |
| 20260902134113 | 26 | 218 | 3.2 | 16.1 | 0.00 | 0.00 | 0.00 | 30 | 1020.1 |
| 20260902131939 | 26 | 277 | 4.8 | 17.7 | 0.00 | 0.00 | 0.00 | 31 | 1020.1 |
| 20260902123451 | 26 | 291 | 0.0 | 11.3 | 0.00 | 0.00 | 0.00 | 35 | 1020.4 |
| 20260902122503 | 26 | 277 | 0.0 | 1.6 | 0.00 | 0.00 | 0.00 | 36 | 1020.6 |
| 20260902121448 | 26 | 317 | 0.0 | 9.7 | 0.00 | 0.00 | 0.00 | 37 | 1020.6 |
| 20260902120459 | 25 | 300 | 1.6 | 4.8 | 0.00 | 0.00 | 0.00 | 39 | 1020.6 |
| 20260902115437 | 24 | 292 | 1.6 | 9.7 | 0.00 | 0.00 | 0.00 | 40 | 1020.6 |
| 20260902114418 | 24 | 342 | 1.6 | 3.2 | 0.00 | 0.00 | 0.00 | 41 | 1020.6 |
| 20260902112306 | 25 | 329 | 0.0 | 0.0 | 0.00 | 0.00 | 0.00 | 42 | 1021.0 |
| 20260902111312 | 25 | 221 | 0.0 | 1.6 | 0.00 | 0.00 | 0.00 | 39 | 1021.0 |
| 20260902110313 | 24 | 306 | 1.6 | 9.7 | 0.00 | 0.00 | 0.00 | 43 | 1021.2 |
| 20260902105255 | 24 | 340 | 0.0 | 4.8 | 0.00 | 0.00 | 0.00 | 44 | 1021.3 |
| 20260902104255 | 24 | 19 | 0.0 | 4.8 | 0.00 | 0.00 | 0.00 | 45 | 1021.3 |
| 20260902103250 | 24 | 302 | 0.0 | 6.4 | 0.00 | 0.00 | 0.00 | 45 | 1021.5 |
| 20260902101147 | 23 | 129 | 0.0 | 0.0 | 0.00 | 0.00 | 0.00 | 49 | 1021.6 |
| 20260902100149 | 22 | 129 | 0.0 | 0.0 | 0.00 | 0.00 | 0.00 | 49 | 1021.8 |
| 20260902095139 | 22 | 129 | 0.0 | 0.0 | 0.00 | 0.00 | 0.00 | 50 | 1021.8 |
| 20260902094137 | 22 | 129 | 0.0 | 1.6 | 0.00 | 0.00 | 0.00 | 50 | 1021.6 |
| 20260902093140 | 21 | 141 | 0.0 | 1.6 | 0.00 | 0.00 | 0.00 | 54 | 1021.6 |
| 20260902092140 | 20 | 299 | 0.0 | 0.0 | 0.00 | 0.00 | 0.00 | 56 | 1021.7 |
| 20260902090051 | 19 | 299 | 0.0 | 0.0 | 0.00 | 0.00 | 0.00 | 59 | 1021.9 |
| 20260902085044 | 19 | 299 | 0.0 | 0.0 | 0.00 | 0.00 | 0.00 | 60 | 1022.0 |
| 20260902084052 | 18 | 299 | 0.0 | 0.0 | 0.00 | 0.00 | 0.00 | 62 | 1022.0 |
| 20260902083035 | 17 | 299 | 0.0 | 0.0 | 0.00 | 0.00 | 0.00 | 63 | 1021.9 |
| 20260902082033 | 17 | 299 | 0.0 | 0.0 | 0.00 | 0.00 | 0.00 | 65 | 1022.1 |
| 20260902081004 | 16 | 299 | 0.0 | 0.0 | 0.00 | 0.00 | 0.00 | 68 | 1022.0 |
| 20260902075956 | 16 | 299 | 0.0 | 0.0 | 0.00 | 0.00 | 0.00 | 70 | 1021.9 |
| 20260902075000 | 15 | 299 | 0.0 | 0.0 | 0.00 | 0.00 | 0.00 | 73 | 1021.7 |
| 20260902072822 | 15 | 299 | 0.0 | 0.0 | 0.00 | 0.00 | 0.00 | 75 | 1021.4 |
| 20260902071800 | 14 | 299 | 0.0 | 0.0 | 0.00 | 0.00 | 0.00 | 75 | 1021.5 |
| 20260902070751 | 14 | 299 | 0.0 | 0.0 | 0.00 | 0.00 | 0.00 | 74 | 1021.5 |
| 20260902065812 | 14 | 299 | 0.0 | 0.0 | 0.00 | 0.00 | 0.00 | 75 | 1021.4 |
| 20260902064827 | 13 | 299 | 0.0 | 0.0 | 0.00 | 0.00 | 0.00 | 74 | 1021.1 |
| 20260902063823 | 13 | 299 | 0.0 | 0.0 | 0.00 | 0.00 | 0.00 | 74 | 1021.0 |
| 20260902062752 | 13 | 299 | 0.0 | 0.0 | 0.00 | 0.00 | 0.00 | 74 | 1020.9 |
| 20260902061740 | 13 | 299 | 0.0 | 0.0 | 0.00 | 0.00 | 0.00 | 74 | 1021.1 |
| 20260902060709 | 12 | 299 | 0.0 | 0.0 | 0.00 | 0.00 | 0.00 | 73 | 1021.3 |
| 20260902055636 | 12 | 299 | 0.0 | 0.0 | 0.00 | 0.00 | 0.00 | 72 | 1021.4 |
| 20260902054701 | 12 | 299 | 0.0 | 0.0 | 0.00 | 0.00 | 0.00 | 72 | 1021.3 |
| 20260902053649 | 12 | 299 | 0.0 | 0.0 | 0.00 | 0.00 | 0.00 | 72 | 1021.3 |
| 20260902051519 | 12 | 299 | 0.0 | 0.0 | 0.00 | 0.00 | 0.00 | 71 | 1021.3 |
| 20260902045353 | 12 | 299 | 0.0 | 0.0 | 0.00 | 0.00 | 0.00 | 71 | 1020.9 |
| 20260902044357 | 12 | 299 | 0.0 | 0.0 | 0.00 | 0.00 | 0.00 | 71 | 1020.9 |
| 20260902043353 | 12 | 299 | 0.0 | 0.0 | 0.00 | 0.00 | 0.00 | 70 | 1021.0 |